createdAt,value
2019-01-10T00:00:52.961Z,15.64
2019-01-10T00:01:54.912Z,15.64
2019-01-10T00:02:56.877Z,15.64
2019-01-10T00:03:58.828Z,15.63
2019-01-10T00:05:00.775Z,15.64
2019-01-10T00:06:02.731Z,15.62
2019-01-10T00:07:04.686Z,15.64
2019-01-10T00:08:06.635Z,15.63
2019-01-10T00:09:11.019Z,15.65
2019-01-10T00:10:14.073Z,15.65
2019-01-10T00:11:16.173Z,15.64
2019-01-10T00:12:18.127Z,15.64
2019-01-10T00:13:22.483Z,15.63
2019-01-10T00:14:24.516Z,15.64
2019-01-10T00:15:26.447Z,15.65
2019-01-10T00:16:28.397Z,15.64
2019-01-10T00:17:30.359Z,15.64
2019-01-10T00:18:33.863Z,15.64
2019-01-10T00:19:35.806Z,15.65
2019-01-10T00:20:40.537Z,15.66
2019-01-10T00:21:42.491Z,15.65
2019-01-10T00:22:44.442Z,15.65
2019-01-10T00:23:46.382Z,15.66
2019-01-10T00:24:48.318Z,15.66
2019-01-10T00:25:50.259Z,15.65
2019-01-10T00:26:52.377Z,15.66
2019-01-10T00:27:56.011Z,15.65
2019-01-10T00:28:58.047Z,15.65
2019-01-10T00:30:00.086Z,15.64
2019-01-10T00:31:02.179Z,15.64
2019-01-10T00:32:04.117Z,15.65
2019-01-10T00:33:07.940Z,15.65
2019-01-10T00:34:13.313Z,15.65
2019-01-10T00:35:15.603Z,15.66
2019-01-10T00:36:17.601Z,15.65
2019-01-10T00:37:23.042Z,15.66
2019-01-10T00:38:24.993Z,15.66
2019-01-10T00:39:29.083Z,15.66
2019-01-10T00:40:31.087Z,15.66
2019-01-10T00:41:33.032Z,15.66
2019-01-10T00:42:35.565Z,15.66
2019-01-10T00:43:37.513Z,15.66
2019-01-10T00:44:39.519Z,15.65
2019-01-10T00:45:41.463Z,15.66
2019-01-10T00:46:43.413Z,15.65
2019-01-10T00:47:45.374Z,15.66
2019-01-10T00:48:47.317Z,15.66
2019-01-10T00:49:49.259Z,15.65
2019-01-10T00:50:51.192Z,15.65
2019-01-10T00:51:53.131Z,15.64
2019-01-10T00:52:55.091Z,15.65
2019-01-10T00:53:57.027Z,15.65
2019-01-10T00:54:58.963Z,15.65
2019-01-10T00:56:00.909Z,15.65
2019-01-10T00:57:06.927Z,15.65
2019-01-10T00:58:08.883Z,15.65
2019-01-10T00:59:10.825Z,15.66
2019-01-10T01:00:12.755Z,15.65
2019-01-10T01:01:14.695Z,15.64
2019-01-10T01:02:16.641Z,15.64
2019-01-10T01:03:18.675Z,15.65
2019-01-10T01:04:20.732Z,15.65
2019-01-10T01:05:25.531Z,15.64
2019-01-10T01:06:27.558Z,15.64
2019-01-10T01:07:31.196Z,15.65
2019-01-10T01:08:33.213Z,15.64
2019-01-10T01:09:35.144Z,15.64
2019-01-10T01:10:37.160Z,15.64
2019-01-10T01:11:39.093Z,15.65
2019-01-10T01:12:41.065Z,15.64
2019-01-10T01:13:43.022Z,15.64
2019-01-10T01:14:46.891Z,15.65
2019-01-10T01:15:48.922Z,15.63
2019-01-10T01:16:50.863Z,15.63
2019-01-10T01:17:52.822Z,15.64
2019-01-10T01:18:54.762Z,15.64
2019-01-10T01:19:56.705Z,15.63
2019-01-10T01:20:58.655Z,15.64
2019-01-10T01:22:00.615Z,15.64
2019-01-10T01:23:02.563Z,15.64
2019-01-10T01:24:04.510Z,15.63
2019-01-10T01:25:06.633Z,15.63
2019-01-10T01:26:08.573Z,15.63
2019-01-10T01:27:10.512Z,15.63
2019-01-10T01:28:13.831Z,15.63
2019-01-10T01:29:16.119Z,15.63
2019-01-10T01:30:18.062Z,15.63
2019-01-10T01:31:20.002Z,15.64
2019-01-10T01:32:21.947Z,15.62
2019-01-10T01:33:23.907Z,15.64
2019-01-10T01:34:25.847Z,15.63
2019-01-10T01:35:27.780Z,15.64
2019-01-10T01:36:29.727Z,15.62
2019-01-10T01:37:31.686Z,15.62
2019-01-10T01:38:35.276Z,15.63
2019-01-10T01:39:37.223Z,15.63
2019-01-10T01:40:39.157Z,15.62
2019-01-10T01:41:41.097Z,15.62
2019-01-10T01:42:43.052Z,15.63
2019-01-10T01:43:45.090Z,15.62
2019-01-10T01:44:48.670Z,15.62
2019-01-10T01:45:50.673Z,15.62
2019-01-10T01:46:52.703Z,15.62
2019-01-10T01:47:54.851Z,15.62
2019-01-10T01:48:56.807Z,15.62
2019-01-10T01:49:58.758Z,15.62
2019-01-10T01:51:00.701Z,15.62
2019-01-10T01:52:02.638Z,15.62
2019-01-10T01:53:04.602Z,15.62
2019-01-10T01:54:06.550Z,15.61
2019-01-10T01:55:08.480Z,15.60
2019-01-10T01:56:10.437Z,15.60
2019-01-10T01:57:12.436Z,15.60
2019-01-10T01:58:14.395Z,15.63
2019-01-10T01:59:16.338Z,15.61
2019-01-10T02:00:18.556Z,15.60
2019-01-10T02:01:20.488Z,15.63
2019-01-10T02:02:22.420Z,15.62
2019-01-10T02:03:24.384Z,15.60
2019-01-10T02:04:26.334Z,15.61
2019-01-10T02:05:28.288Z,15.61
2019-01-10T02:06:30.244Z,15.60
2019-01-10T02:07:32.242Z,15.60
2019-01-10T02:08:34.204Z,15.62
2019-01-10T02:09:36.158Z,15.61
2019-01-10T02:10:38.100Z,15.60
2019-01-10T02:11:40.045Z,15.60
2019-01-10T02:12:42.051Z,15.60
2019-01-10T02:13:44.123Z,15.60
2019-01-10T02:14:46.055Z,15.60
2019-01-10T02:15:48.099Z,15.60
2019-01-10T02:16:50.028Z,15.60
2019-01-10T02:17:51.972Z,15.60
2019-01-10T02:18:53.940Z,15.60
2019-01-10T02:19:55.894Z,15.60
2019-01-10T02:20:57.820Z,15.60
2019-01-10T02:21:59.778Z,15.60
2019-01-10T02:23:01.724Z,15.60
2019-01-10T02:24:03.674Z,15.60
2019-01-10T02:25:05.620Z,15.60
2019-01-10T02:26:09.949Z,15.59
2019-01-10T02:27:11.882Z,15.59
2019-01-10T02:28:13.836Z,15.59
2019-01-10T02:29:15.869Z,15.59
2019-01-10T02:30:17.883Z,15.59
2019-01-10T02:31:19.830Z,15.59
2019-01-10T02:32:21.821Z,15.60
2019-01-10T02:33:23.794Z,15.58
2019-01-10T02:34:25.717Z,15.59
2019-01-10T02:35:27.648Z,15.60
2019-01-10T02:36:29.596Z,15.60
2019-01-10T02:37:31.534Z,15.58
2019-01-10T02:38:33.496Z,15.59
2019-01-10T02:39:35.451Z,15.58
2019-01-10T02:40:37.397Z,15.59
2019-01-10T02:41:39.341Z,15.59
2019-01-10T02:42:41.291Z,15.58
2019-01-10T02:43:43.260Z,15.58
2019-01-10T02:44:45.288Z,15.60
2019-01-10T02:45:47.223Z,15.59
2019-01-10T02:46:49.157Z,15.58
2019-01-10T02:47:51.178Z,15.59
2019-01-10T02:48:53.361Z,15.59
2019-01-10T02:49:55.299Z,15.60
2019-01-10T02:50:57.235Z,15.60
2019-01-10T02:52:00.199Z,15.59
2019-01-10T02:53:02.210Z,15.59
2019-01-10T02:54:04.235Z,15.59
2019-01-10T02:55:06.203Z,15.58
2019-01-10T02:56:08.148Z,15.58
2019-01-10T02:57:10.078Z,15.59
2019-01-10T02:58:12.024Z,15.59
2019-01-10T02:59:17.552Z,15.58
2019-01-10T03:00:19.736Z,15.59
2019-01-10T03:01:21.894Z,15.60
2019-01-10T03:02:23.837Z,15.59
2019-01-10T03:03:25.765Z,15.60
2019-01-10T03:04:27.707Z,15.59
2019-01-10T03:05:29.889Z,15.58
2019-01-10T03:06:31.898Z,15.59
2019-01-10T03:07:33.844Z,15.59
2019-01-10T03:08:35.857Z,15.59
2019-01-10T03:09:37.856Z,15.58
2019-01-10T03:10:39.798Z,15.59
2019-01-10T03:11:41.740Z,15.59
2019-01-10T03:12:43.674Z,15.58
2019-01-10T03:13:45.650Z,15.58
2019-01-10T03:14:47.661Z,15.60
2019-01-10T03:15:49.593Z,15.59
2019-01-10T03:16:51.525Z,15.60
2019-01-10T03:17:53.542Z,15.60
2019-01-10T03:18:55.505Z,15.60
2019-01-10T03:19:57.447Z,15.59
2019-01-10T03:20:59.387Z,15.59
2019-01-10T03:22:03.378Z,15.59
2019-01-10T03:23:05.330Z,15.59
2019-01-10T03:24:07.278Z,15.60
2019-01-10T03:25:09.220Z,15.59
2019-01-10T03:26:11.170Z,15.59
2019-01-10T03:27:13.172Z,15.59
2019-01-10T03:28:15.198Z,15.60
2019-01-10T03:29:17.170Z,15.60
2019-01-10T03:30:19.199Z,15.60
2019-01-10T03:31:21.216Z,15.60
2019-01-10T03:32:23.168Z,15.60
2019-01-10T03:33:25.168Z,15.59
2019-01-10T03:34:27.147Z,15.60
2019-01-10T03:35:29.174Z,15.59
2019-01-10T03:36:31.195Z,15.60
2019-01-10T03:37:33.124Z,15.60
2019-01-10T03:38:35.060Z,15.60
2019-01-10T03:39:37.016Z,15.59
2019-01-10T03:40:38.953Z,15.59
2019-01-10T03:41:40.896Z,15.59
2019-01-10T03:42:42.897Z,15.59
2019-01-10T03:43:47.357Z,15.60
2019-01-10T03:44:48.517Z,15.60
2019-01-10T03:45:50.468Z,15.60
2019-01-10T03:46:52.409Z,15.61
2019-01-10T03:47:54.450Z,15.60
2019-01-10T03:48:56.909Z,15.60
2019-01-10T03:49:58.867Z,15.62
2019-01-10T03:51:00.803Z,15.60
2019-01-10T03:52:02.812Z,15.59
2019-01-10T03:53:06.957Z,15.60
2019-01-10T03:54:08.894Z,15.59
2019-01-10T03:55:10.846Z,15.60
2019-01-10T03:56:12.857Z,15.60
2019-01-10T03:57:14.812Z,15.60
2019-01-10T03:58:16.742Z,15.60
2019-01-10T03:59:18.702Z,15.59
2019-01-10T04:00:20.659Z,15.60
2019-01-10T04:01:22.682Z,15.61
2019-01-10T04:02:24.616Z,15.60
2019-01-10T04:03:26.563Z,15.60
2019-01-10T04:04:28.601Z,15.61
2019-01-10T04:05:30.535Z,15.61
2019-01-10T04:06:32.481Z,15.60
2019-01-10T04:07:34.420Z,15.61
2019-01-10T04:08:36.376Z,15.60
2019-01-10T04:09:38.325Z,15.62
2019-01-10T04:10:40.289Z,15.60
2019-01-10T04:11:42.248Z,15.61
2019-01-10T04:12:44.185Z,15.61
2019-01-10T04:13:46.132Z,15.59
2019-01-10T04:14:48.070Z,15.60
2019-01-10T04:15:50.014Z,15.61
2019-01-10T04:16:51.971Z,15.60
2019-01-10T04:17:53.927Z,15.59
2019-01-10T04:18:55.873Z,15.62
2019-01-10T04:19:57.833Z,15.60
2019-01-10T04:20:59.831Z,15.60
2019-01-10T04:22:01.779Z,15.59
2019-01-10T04:23:03.713Z,15.61
2019-01-10T04:24:05.648Z,15.60
2019-01-10T04:25:07.601Z,15.60
2019-01-10T04:26:09.537Z,15.60
2019-01-10T04:27:11.487Z,15.59
2019-01-10T04:28:13.433Z,15.59
2019-01-10T04:29:15.377Z,15.59
2019-01-10T04:30:17.320Z,15.59
2019-01-10T04:31:19.264Z,15.61
2019-01-10T04:32:21.204Z,15.61
2019-01-10T04:33:23.148Z,15.59
2019-01-10T04:34:25.115Z,15.60
2019-01-10T04:35:27.049Z,15.60
2019-01-10T04:36:31.182Z,15.60
2019-01-10T04:37:33.129Z,15.61
2019-01-10T04:38:35.082Z,15.59
2019-01-10T04:39:37.041Z,15.60
2019-01-10T04:40:38.967Z,15.60
2019-01-10T04:41:40.899Z,15.59
2019-01-10T04:42:42.840Z,15.58
2019-01-10T04:43:44.781Z,15.59
2019-01-10T04:44:46.743Z,15.59
2019-01-10T04:45:48.689Z,15.59
2019-01-10T04:46:50.645Z,15.61
2019-01-10T04:47:52.591Z,15.61
2019-01-10T04:48:54.543Z,15.60
2019-01-10T04:49:56.568Z,15.61
2019-01-10T04:50:58.502Z,15.60
2019-01-10T04:52:00.521Z,15.59
2019-01-10T04:53:02.456Z,15.59
2019-01-10T04:54:04.406Z,15.60
2019-01-10T04:55:09.416Z,15.60
2019-01-10T04:56:11.364Z,15.59
2019-01-10T04:57:13.304Z,15.59
2019-01-10T04:58:15.346Z,15.59
2019-01-10T04:59:17.364Z,15.59
2019-01-10T05:00:19.327Z,15.58
2019-01-10T05:01:21.336Z,15.59
2019-01-10T05:02:23.296Z,15.59
2019-01-10T05:03:25.340Z,15.59
2019-01-10T05:04:27.350Z,15.58
2019-01-10T05:05:29.299Z,15.58
2019-01-10T05:06:33.303Z,15.58
2019-01-10T05:07:34.909Z,15.59
2019-01-10T05:08:36.844Z,15.58
2019-01-10T05:09:38.803Z,15.59
2019-01-10T05:10:40.739Z,15.58
2019-01-10T05:11:42.754Z,15.59
2019-01-10T05:12:44.785Z,15.60
2019-01-10T05:13:46.818Z,15.58
2019-01-10T05:14:48.845Z,15.59
2019-01-10T05:15:51.376Z,15.58
2019-01-10T05:16:53.332Z,15.57
2019-01-10T05:17:55.346Z,15.59
2019-01-10T05:18:57.295Z,15.59
2019-01-10T05:20:02.516Z,15.58
2019-01-10T05:21:04.530Z,15.59
2019-01-10T05:22:06.478Z,15.58
2019-01-10T05:23:08.410Z,15.59
2019-01-10T05:24:10.350Z,15.59
2019-01-10T05:25:12.320Z,15.58
2019-01-10T05:26:14.283Z,15.57
2019-01-10T05:27:16.307Z,15.57
2019-01-10T05:28:18.244Z,15.59
2019-01-10T05:29:20.174Z,15.58
2019-01-10T05:30:22.135Z,15.58
2019-01-10T05:31:24.080Z,15.59
2019-01-10T05:32:26.084Z,15.58
2019-01-10T05:33:28.080Z,15.59
2019-01-10T05:34:30.042Z,15.58
2019-01-10T05:35:32.007Z,15.59
2019-01-10T05:36:33.946Z,15.58
2019-01-10T05:37:35.888Z,15.60
2019-01-10T05:38:41.400Z,15.58
2019-01-10T05:39:47.688Z,15.57
2019-01-10T05:40:47.213Z,15.58
2019-01-10T05:41:49.278Z,15.57
2019-01-10T05:42:51.239Z,15.58
2019-01-10T05:43:53.248Z,15.58
2019-01-10T05:44:55.176Z,15.58
2019-01-10T05:45:57.136Z,15.57
2019-01-10T05:46:59.082Z,15.56
2019-01-10T05:48:01.151Z,15.57
2019-01-10T05:49:03.146Z,15.58
2019-01-10T05:50:05.091Z,15.58
2019-01-10T05:51:08.339Z,15.58
2019-01-10T05:52:10.360Z,15.58
2019-01-10T05:53:12.308Z,15.58
2019-01-10T05:54:16.378Z,15.58
2019-01-10T05:55:18.322Z,15.58
2019-01-10T05:56:20.468Z,15.58
2019-01-10T05:57:22.494Z,15.60
2019-01-10T05:58:24.509Z,15.61
2019-01-10T05:59:28.359Z,15.61
2019-01-10T06:00:30.315Z,15.60
2019-01-10T06:01:32.285Z,15.60
2019-01-10T06:02:35.431Z,15.62
2019-01-10T06:03:37.453Z,15.61
2019-01-10T06:04:39.390Z,15.61
2019-01-10T06:05:41.346Z,15.61
2019-01-10T06:06:43.325Z,15.59
2019-01-10T06:07:45.266Z,15.60
2019-01-10T06:08:47.220Z,15.60
2019-01-10T06:09:49.169Z,15.62
2019-01-10T06:10:51.107Z,15.61
2019-01-10T06:11:53.069Z,15.63
2019-01-10T06:12:55.013Z,15.60
2019-01-10T06:13:56.972Z,15.62
2019-01-10T06:14:58.901Z,15.61
2019-01-10T06:16:00.929Z,15.61
2019-01-10T06:17:03.023Z,15.64
2019-01-10T06:18:04.962Z,15.64
2019-01-10T06:19:06.911Z,15.64
2019-01-10T06:20:08.925Z,15.64
2019-01-10T06:21:10.860Z,15.65
2019-01-10T06:22:12.836Z,15.64
2019-01-10T06:23:14.787Z,15.64
2019-01-10T06:24:16.734Z,15.64
2019-01-10T06:25:18.680Z,15.64
2019-01-10T06:26:20.717Z,15.64
2019-01-10T06:27:22.994Z,15.64
2019-01-10T06:28:24.951Z,15.65
2019-01-10T06:29:26.963Z,15.65
2019-01-10T06:30:28.980Z,15.66
2019-01-10T06:31:30.940Z,15.64
2019-01-10T06:32:33.220Z,15.65
2019-01-10T06:33:35.163Z,15.64
2019-01-10T06:34:37.098Z,15.65
2019-01-10T06:35:39.048Z,15.64
2019-01-10T06:36:41.005Z,15.65
2019-01-10T06:37:42.969Z,15.65
2019-01-10T06:38:44.893Z,15.65
2019-01-10T06:39:46.838Z,15.66
2019-01-10T06:40:49.370Z,15.64
2019-01-10T06:41:51.314Z,15.66
2019-01-10T06:42:53.280Z,15.66
2019-01-10T06:43:55.221Z,15.66
2019-01-10T06:44:57.175Z,15.66
2019-01-10T06:45:59.108Z,15.66
2019-01-10T06:47:01.051Z,15.64
2019-01-10T06:48:03.031Z,15.65
2019-01-10T06:49:06.443Z,15.64
2019-01-10T06:50:08.396Z,15.64
2019-01-10T06:51:10.336Z,15.65
2019-01-10T06:52:14.238Z,15.64
2019-01-10T06:53:16.503Z,15.64
2019-01-10T06:54:18.518Z,15.63
2019-01-10T06:55:20.476Z,15.63
2019-01-10T06:56:22.518Z,15.64
2019-01-10T06:57:24.547Z,15.64
2019-01-10T06:58:26.608Z,15.64
2019-01-10T06:59:28.553Z,15.63
2019-01-10T07:00:30.498Z,15.64
2019-01-10T07:01:32.445Z,15.62
2019-01-10T07:02:34.385Z,15.62
2019-01-10T07:03:36.357Z,15.63
2019-01-10T07:04:38.387Z,15.62
2019-01-10T07:05:40.414Z,15.62
2019-01-10T07:06:42.379Z,15.62
2019-01-10T07:07:44.646Z,15.62
2019-01-10T07:08:46.624Z,15.62
2019-01-10T07:09:48.585Z,15.62
2019-01-10T07:10:50.524Z,15.62
2019-01-10T07:11:52.469Z,15.63
2019-01-10T07:12:54.432Z,15.60
2019-01-10T07:13:56.412Z,15.61
2019-01-10T07:14:58.365Z,15.60
2019-01-10T07:16:00.305Z,15.60
2019-01-10T07:17:02.260Z,15.59
2019-01-10T07:18:04.217Z,15.60
2019-01-10T07:19:06.188Z,15.60
2019-01-10T07:20:08.144Z,15.60
2019-01-10T07:21:11.117Z,15.59
2019-01-10T07:22:13.112Z,15.59
2019-01-10T07:23:15.380Z,15.59
2019-01-10T07:24:17.345Z,15.62
2019-01-10T07:25:19.285Z,15.59
2019-01-10T07:26:21.309Z,15.59
2019-01-10T07:27:23.262Z,15.60
2019-01-10T07:28:28.233Z,15.59
2019-01-10T07:29:32.030Z,15.59
2019-01-10T07:30:36.222Z,15.59
2019-01-10T07:31:37.725Z,15.58
2019-01-10T07:32:39.680Z,15.59
2019-01-10T07:33:41.726Z,15.59
2019-01-10T07:34:45.525Z,15.59
2019-01-10T07:35:51.423Z,15.59
2019-01-10T07:36:53.510Z,15.59
2019-01-10T07:37:55.461Z,15.61
2019-01-10T07:38:58.229Z,15.61
2019-01-10T07:40:00.322Z,15.60
2019-01-10T07:41:02.339Z,15.61
2019-01-10T07:42:04.345Z,15.61
2019-01-10T07:43:06.284Z,15.62
2019-01-10T07:44:10.103Z,15.61
2019-01-10T07:45:11.924Z,15.60
2019-01-10T07:46:15.161Z,15.59
2019-01-10T07:47:17.175Z,15.60
2019-01-10T07:48:19.103Z,15.60
2019-01-10T07:49:21.826Z,15.59
2019-01-10T07:50:25.701Z,15.60
2019-01-10T07:51:45.617Z,15.60
2019-01-10T07:52:47.919Z,15.60
2019-01-10T07:53:49.939Z,15.62
2019-01-10T07:54:52.065Z,15.62
2019-01-10T07:55:54.978Z,15.63
2019-01-10T07:56:58.208Z,15.62
2019-01-10T07:58:00.147Z,15.63
2019-01-10T07:59:02.095Z,15.63
2019-01-10T08:00:04.241Z,15.63
2019-01-10T08:01:06.221Z,15.62
2019-01-10T08:02:08.162Z,15.62
2019-01-10T08:03:13.080Z,15.62
2019-01-10T08:04:21.600Z,15.63
2019-01-10T08:05:23.564Z,15.63
2019-01-10T08:06:25.574Z,15.62
2019-01-10T08:07:27.515Z,15.63
2019-01-10T08:08:29.463Z,15.61
2019-01-10T08:09:31.396Z,15.63
2019-01-10T08:10:33.354Z,15.62
2019-01-10T08:11:35.402Z,15.62
2019-01-10T08:12:37.354Z,15.62
2019-01-10T08:13:39.282Z,15.63
2019-01-10T08:14:41.222Z,15.63
2019-01-10T08:15:46.779Z,15.64
2019-01-10T08:16:49.774Z,15.64
2019-01-10T08:17:52.300Z,15.66
2019-01-10T08:18:54.256Z,15.65
2019-01-10T08:19:56.208Z,15.66
2019-01-10T08:20:58.233Z,15.66
2019-01-10T08:22:00.258Z,15.67
2019-01-10T08:23:02.194Z,15.68
2019-01-10T08:24:04.160Z,15.68
2019-01-10T08:25:07.463Z,15.67
2019-01-10T08:26:09.420Z,15.67
2019-01-10T08:27:14.974Z,15.68
2019-01-10T08:28:16.916Z,15.67
2019-01-10T08:29:18.870Z,15.69
2019-01-10T08:30:20.824Z,15.70
2019-01-10T08:31:22.847Z,15.69
2019-01-10T08:32:25.358Z,15.69
2019-01-10T08:33:27.390Z,15.70
2019-01-10T08:34:29.336Z,15.69
2019-01-10T08:35:31.368Z,15.69
2019-01-10T08:36:33.325Z,15.70
2019-01-10T08:37:35.326Z,15.69
2019-01-10T08:38:40.690Z,15.70
2019-01-10T08:39:42.690Z,15.71
2019-01-10T08:40:44.636Z,15.72
2019-01-10T08:41:46.582Z,15.71
2019-01-10T08:42:48.560Z,15.71
2019-01-10T08:43:50.507Z,15.71
2019-01-10T08:44:52.465Z,15.72
2019-01-10T08:45:54.471Z,15.73
2019-01-10T08:46:56.406Z,15.73
2019-01-10T08:47:58.402Z,15.73
2019-01-10T08:49:00.444Z,15.73
2019-01-10T08:50:02.987Z,15.73
2019-01-10T08:51:04.932Z,15.74
2019-01-10T08:52:10.442Z,15.72
2019-01-10T08:53:16.046Z,15.73
2019-01-10T08:54:18.054Z,15.73
2019-01-10T08:55:20.001Z,15.73
2019-01-10T08:56:21.946Z,15.75
2019-01-10T08:57:23.886Z,15.75
2019-01-10T08:58:25.862Z,15.75
2019-01-10T08:59:27.872Z,15.75
2019-01-10T09:00:29.826Z,15.75
2019-01-10T09:01:34.483Z,15.76
2019-01-10T09:02:36.427Z,15.75
2019-01-10T09:03:38.632Z,15.76
2019-01-10T09:04:40.575Z,15.75
2019-01-10T09:05:42.696Z,15.74
2019-01-10T09:06:44.631Z,15.76
2019-01-10T09:07:46.590Z,15.74
2019-01-10T09:08:48.559Z,15.76
2019-01-10T09:09:50.513Z,15.75
2019-01-10T09:10:52.529Z,15.76
2019-01-10T09:11:58.007Z,15.74
2019-01-10T09:12:59.954Z,15.74
2019-01-10T09:14:01.889Z,15.75
2019-01-10T09:15:05.586Z,15.75
2019-01-10T09:16:07.676Z,15.76
2019-01-10T09:17:09.621Z,15.76
2019-01-10T09:18:11.571Z,15.75
2019-01-10T09:19:13.623Z,15.75
2019-01-10T09:20:15.564Z,15.76
2019-01-10T09:21:17.569Z,15.76
2019-01-10T09:22:19.513Z,15.75
2019-01-10T09:23:21.451Z,15.76
2019-01-10T09:24:23.422Z,15.76
2019-01-10T09:25:25.382Z,15.76
2019-01-10T09:26:37.473Z,15.76
2019-01-10T09:27:32.276Z,15.76
2019-01-10T09:28:34.251Z,15.75
2019-01-10T09:29:36.239Z,15.75
2019-01-10T09:30:38.769Z,15.76
2019-01-10T09:31:41.760Z,15.76
2019-01-10T09:32:43.812Z,15.77
2019-01-10T09:33:45.761Z,15.76
2019-01-10T09:34:47.733Z,15.77
2019-01-10T09:35:49.663Z,15.77
2019-01-10T09:36:51.895Z,15.76
2019-01-10T09:37:53.854Z,15.76
2019-01-10T09:38:55.887Z,15.76
2019-01-10T09:39:57.866Z,15.76
2019-01-10T09:40:59.843Z,15.76
2019-01-10T09:42:02.590Z,15.76
2019-01-10T09:43:04.561Z,15.77
2019-01-10T09:44:08.203Z,15.77
2019-01-10T09:45:10.386Z,15.77
2019-01-10T09:46:12.329Z,15.75
2019-01-10T09:47:14.347Z,15.75
2019-01-10T09:48:16.289Z,15.76
2019-01-10T09:49:18.304Z,15.77
2019-01-10T09:50:20.281Z,15.77
2019-01-10T09:51:22.229Z,15.78
2019-01-10T09:52:24.166Z,15.77
2019-01-10T09:53:26.111Z,15.78
2019-01-10T09:54:28.053Z,15.77
2019-01-10T09:55:30.036Z,15.78
2019-01-10T09:56:31.982Z,15.78
2019-01-10T09:57:33.925Z,15.79
2019-01-10T09:58:35.865Z,15.78
2019-01-10T09:59:37.811Z,15.77
2019-01-10T10:00:39.779Z,15.80
2019-01-10T10:01:41.745Z,15.79
2019-01-10T10:02:43.673Z,15.78
2019-01-10T10:03:45.626Z,15.79
2019-01-10T10:04:47.642Z,15.78
2019-01-10T10:05:49.631Z,15.79
2019-01-10T10:06:51.651Z,15.78
2019-01-10T10:07:53.584Z,15.78
2019-01-10T10:08:55.611Z,15.78
2019-01-10T10:09:57.627Z,15.78
2019-01-10T10:10:59.657Z,15.78
2019-01-10T10:12:01.595Z,15.79
2019-01-10T10:13:03.545Z,15.80
2019-01-10T10:14:05.503Z,15.79
2019-01-10T10:15:09.373Z,15.79
2019-01-10T10:16:11.140Z,15.79
2019-01-10T10:17:13.094Z,15.79
2019-01-10T10:18:15.054Z,15.80
2019-01-10T10:19:17.071Z,15.78
2019-01-10T10:20:19.289Z,15.79
2019-01-10T10:21:21.275Z,15.80
2019-01-10T10:22:23.236Z,15.79
2019-01-10T10:23:26.976Z,15.78
2019-01-10T10:24:28.927Z,15.77
2019-01-10T10:25:30.867Z,15.78
2019-01-10T10:26:32.830Z,15.79
2019-01-10T10:27:34.784Z,15.79
2019-01-10T10:28:36.728Z,15.79
2019-01-10T10:29:38.664Z,15.80
2019-01-10T10:30:40.600Z,15.79
2019-01-10T10:31:45.981Z,15.78
2019-01-10T10:32:47.967Z,15.79
2019-01-10T10:33:49.919Z,15.79
2019-01-10T10:34:51.878Z,15.78
2019-01-10T10:35:53.810Z,15.77
2019-01-10T10:36:55.778Z,15.77
2019-01-10T10:37:57.804Z,15.77
2019-01-10T10:38:59.877Z,15.78
2019-01-10T10:40:03.522Z,15.79
2019-01-10T10:41:05.477Z,15.78
2019-01-10T10:42:07.456Z,15.80
2019-01-10T10:43:09.417Z,15.78
2019-01-10T10:44:13.655Z,15.79
2019-01-10T10:45:15.662Z,15.79
2019-01-10T10:46:17.612Z,15.78
2019-01-10T10:47:19.592Z,15.80
2019-01-10T10:48:21.548Z,15.79
2019-01-10T10:49:23.504Z,15.80
2019-01-10T10:50:25.446Z,15.80
2019-01-10T10:51:27.415Z,15.79
2019-01-10T10:52:29.466Z,15.79
2019-01-10T10:53:31.493Z,15.79
2019-01-10T10:54:33.432Z,15.80
2019-01-10T10:55:35.372Z,15.80
2019-01-10T10:56:37.478Z,15.81
2019-01-10T10:57:39.453Z,15.80
2019-01-10T10:58:41.420Z,15.82
2019-01-10T10:59:43.464Z,15.83
2019-01-10T11:00:45.481Z,15.82
2019-01-10T11:01:47.428Z,15.81
2019-01-10T11:02:49.426Z,15.80
2019-01-10T11:03:51.440Z,15.81
2019-01-10T11:04:53.400Z,15.81
2019-01-10T11:05:55.345Z,15.80
2019-01-10T11:06:59.198Z,15.82
2019-01-10T11:08:01.043Z,15.81
2019-01-10T11:09:09.017Z,15.81
2019-01-10T11:10:07.302Z,15.81
2019-01-10T11:11:09.263Z,15.82
2019-01-10T11:12:14.928Z,15.82
2019-01-10T11:13:16.928Z,15.80
2019-01-10T11:14:18.949Z,15.80
2019-01-10T11:15:20.980Z,15.80
2019-01-10T11:16:22.995Z,15.81
2019-01-10T11:17:25.010Z,15.81
2019-01-10T11:18:26.995Z,15.80
2019-01-10T11:19:28.936Z,15.80
2019-01-10T11:20:30.921Z,15.81
2019-01-10T11:21:32.869Z,15.81
2019-01-10T11:22:34.825Z,15.80
2019-01-10T11:23:36.786Z,15.81
2019-01-10T11:24:38.812Z,15.81
2019-01-10T11:25:40.747Z,15.81
2019-01-10T11:26:42.883Z,15.80
2019-01-10T11:27:44.827Z,15.81
2019-01-10T11:28:46.798Z,15.81
2019-01-10T11:29:50.701Z,15.81
2019-01-10T11:30:52.435Z,15.81
2019-01-10T11:31:54.372Z,15.80
2019-01-10T11:32:56.313Z,15.81
2019-01-10T11:33:58.294Z,15.81
2019-01-10T11:35:00.269Z,15.81
2019-01-10T11:36:02.217Z,15.81
2019-01-10T11:37:04.157Z,15.81
2019-01-10T11:38:09.673Z,15.80
2019-01-10T11:39:11.678Z,15.81
2019-01-10T11:40:13.621Z,15.81
2019-01-10T11:41:15.575Z,15.82
2019-01-10T11:42:17.589Z,15.82
2019-01-10T11:43:19.542Z,15.81
2019-01-10T11:44:21.509Z,15.82
2019-01-10T11:45:23.442Z,15.81
2019-01-10T11:46:25.453Z,15.80
2019-01-10T11:47:27.419Z,15.80
2019-01-10T11:48:29.345Z,15.80
2019-01-10T11:49:31.315Z,15.81
2019-01-10T11:50:33.257Z,15.81
2019-01-10T11:51:35.236Z,15.81
2019-01-10T11:52:37.181Z,15.82
2019-01-10T11:53:39.214Z,15.81
2019-01-10T11:54:41.205Z,15.81
2019-01-10T11:55:43.148Z,15.81
2019-01-10T11:56:45.106Z,15.81
2019-01-10T11:57:47.234Z,15.81
2019-01-10T11:58:49.194Z,15.80
2019-01-10T11:59:51.236Z,15.80
2019-01-10T12:00:53.183Z,15.81
2019-01-10T12:01:55.130Z,15.80
2019-01-10T12:02:57.072Z,15.80
2019-01-10T12:03:59.046Z,15.80
2019-01-10T12:05:01.042Z,15.80
2019-01-10T12:06:02.999Z,15.82
2019-01-10T12:07:05.035Z,15.82
2019-01-10T12:08:07.056Z,15.83
2019-01-10T12:09:08.996Z,15.83
2019-01-10T12:10:10.994Z,15.83
2019-01-10T12:11:13.006Z,15.83
2019-01-10T12:12:14.952Z,15.83
2019-01-10T12:13:16.979Z,15.84
2019-01-10T12:14:18.952Z,15.84
2019-01-10T12:15:21.447Z,15.84
2019-01-10T12:16:28.709Z,15.84
2019-01-10T12:17:31.183Z,15.85
2019-01-10T12:18:33.243Z,15.83
2019-01-10T12:19:35.214Z,15.83
2019-01-10T12:20:37.267Z,15.83
2019-01-10T12:21:39.201Z,15.83
2019-01-10T12:22:41.148Z,15.82
2019-01-10T12:23:43.099Z,15.83
2019-01-10T12:24:45.347Z,15.82
2019-01-10T12:25:47.327Z,15.82
2019-01-10T12:26:49.362Z,15.82
2019-01-10T12:27:51.387Z,15.82
2019-01-10T12:28:53.403Z,15.83
2019-01-10T12:29:55.340Z,15.84
2019-01-10T12:30:57.793Z,15.82
2019-01-10T12:32:00.141Z,15.84
2019-01-10T12:33:04.461Z,15.83
2019-01-10T12:34:06.413Z,15.83
2019-01-10T12:35:08.369Z,15.84
2019-01-10T12:36:10.927Z,15.85
2019-01-10T12:37:12.865Z,15.84
2019-01-10T12:38:14.891Z,15.84
2019-01-10T12:39:16.876Z,15.86
2019-01-10T12:40:18.838Z,15.85
2019-01-10T12:41:21.325Z,15.85
2019-01-10T12:42:23.262Z,15.85
2019-01-10T12:43:25.267Z,15.85
2019-01-10T12:44:27.286Z,15.85
2019-01-10T12:45:29.214Z,15.85
2019-01-10T12:46:37.479Z,15.84
2019-01-10T12:47:34.896Z,15.84
2019-01-10T12:48:36.843Z,15.83
2019-01-10T12:49:38.859Z,15.83
2019-01-10T12:50:40.806Z,15.82
2019-01-10T12:51:42.788Z,15.82
2019-01-10T12:52:44.728Z,15.82
2019-01-10T12:53:46.739Z,15.82
2019-01-10T12:54:48.682Z,15.81
2019-01-10T12:55:50.618Z,15.81
2019-01-10T12:56:52.612Z,15.81
2019-01-10T12:57:54.597Z,15.80
2019-01-10T12:58:56.545Z,15.80
2019-01-10T12:59:58.503Z,15.80
2019-01-10T13:01:00.547Z,15.81
2019-01-10T13:02:02.562Z,15.81
2019-01-10T13:03:04.496Z,15.80
2019-01-10T13:04:06.443Z,15.81
2019-01-10T13:05:08.374Z,15.82
2019-01-10T13:06:10.357Z,15.80
2019-01-10T13:07:13.886Z,15.82
2019-01-10T13:08:15.938Z,15.82
2019-01-10T13:09:17.898Z,15.82
2019-01-10T13:10:19.904Z,15.82
2019-01-10T13:11:21.853Z,15.82
2019-01-10T13:12:23.844Z,15.81
2019-01-10T13:13:25.787Z,15.82
2019-01-10T13:14:27.777Z,15.82
2019-01-10T13:15:29.743Z,15.82
2019-01-10T13:16:31.914Z,15.82
2019-01-10T13:17:33.895Z,15.81
2019-01-10T13:18:35.832Z,15.81
2019-01-10T13:19:37.777Z,15.80
2019-01-10T13:20:39.732Z,15.81
2019-01-10T13:21:41.669Z,15.81